METAR Reports From Nearby Airports

 

KLUD - Decatur, Texas, USA
Distance from Wildwood: ØSØ 5mi, 8km
Opdateret: Sep 20, 2019 2:55am
Mostly Cloudy
Mostly Cloudy
 Vind retning calm
Vind: Vindstille
Temperatur: 72°F , 22°C
Dugpunkt: 68°F , 20°C
Fugtighed: 88%
Barometer: 29.92 inHg , 1013.2 hPa
Clouds: Mostly Cloudy
Visibility: 10 miles , 16 km
Cloud details: Partly Cloudy 800 ft
Partly Cloudy 2100 ft
Mostly Cloudy 5000 ft
2019/09/20 07:55 KLUD 200755Z AUTO 00000KT 10SM SCT008 SCT021 BKN050 22/20 A2992 RMK AO2 T02200203
KXBP - Bridgeport, Texas, USA
Distance from Wildwood: VSV 11mi, 18km
Opdateret: Sep 20, 2019 2:55am
Overskyet
Overskyet
 Vind retning calm
Vind: Vindstille
Temperatur: 72°F , 22°C
Dugpunkt: 70°F , 21°C
Fugtighed: 94%
Barometer: 29.93 inHg , 1013.5 hPa
Clouds: Overskyet
Visibility: 10 miles , 16 km
Cloud details: Mostly Cloudy 2200 ft
Overskyet 4700 ft
2019/09/20 07:55 KXBP 200755Z AUTO 00000KT 10SM BKN022 OVC047 22/21 A2993 RMK AO2 LTG DSNT W T02170210
 
K0F2 - Bowie, Texas, USA
Distance from Wildwood: NNV 24mi, 39km
Opdateret: Sep 20, 2019 2:55am
Partly Cloudy
Partly Cloudy
 Vind retning calm
Vind: Vindstille
Temperatur: 72°F , 22°C
Dugpunkt: 68°F , 20°C
Fugtighed: 88%
Barometer: 29.93 inHg , 1013.5 hPa
Clouds: Partly Cloudy
Visibility: 10 miles , 16 km
Cloud details: Partly Cloudy 1500 ft
Partly Cloudy 5500 ft
2019/09/20 07:55 K0F2 200755Z AUTO 00000KT 10SM SCT015 SCT055 22/20 A2993 RMK AO2 T02150200
KDTO - Denton, Texas, USA
Distance from Wildwood: Ø 27mi, 44km
Opdateret: Sep 20, 2019 3:04am
Overskyet
Overskyet
 Vind retning SØ
Vind: SØ 3 mph , 6 km/h
Temperatur: 73°F , 23°C
Dugpunkt: 70°F , 21°C
Fugtighed: 89%
Barometer: 29.91 inHg , 1012.9 hPa
Clouds: Overskyet
Visibility: 10 miles , 16 km
Cloud details: Mostly Cloudy 1400 ft
Overskyet 2000 ft
2019/09/20 08:04 KDTO 200804Z AUTO 14003KT 10SM BKN014 OVC020 23/21 A2991 RMK AO2 T02330211
 
KAFW - Ft Worth/Allianc, Texas, USA
Distance from Wildwood: SØ 29mi, 46km
Opdateret: Sep 20, 2019 2:53am
Overskyet
Overskyet
 Vind retning SØ
Vind: SØ 6 mph , 9 km/h
Temperatur: 75°F , 24°C
Dugpunkt: 72°F , 22°C
Fugtighed: 89%
Barometer: 29.90 inHg , 1012.5 hPa
Clouds: Overskyet
Visibility: 10 miles , 16 km
Cloud details: Overskyet 1400 ft
2019/09/20 07:53 KAFW 200753Z 14005KT 10SM OVC014 24/22 A2990 RMK AO2 SLP111 T02440217
KFTW - Fort Worth, Texas, USA
Distance from Wildwood: SSØ 34mi, 55km
Opdateret: Sep 20, 2019 2:53am
Overskyet
Overskyet
 Vind retning SSØ
Vind: SSØ 6 mph , 9 km/h
Temperatur: 75°F , 24°C
Dugpunkt: 72°F , 22°C
Fugtighed: 89%
Barometer: 29.91 inHg , 1012.9 hPa
Clouds: Overskyet
Visibility: 10 miles , 16 km
Cloud details: Partly Cloudy 1300 ft
Overskyet 2100 ft
2019/09/20 07:53 KFTW 200753Z 15005KT 10SM SCT013 OVC021 24/22 A2991 RMK AO2 SLP118 T02390222
 
KNFW - Fort Worth Nas, Texas, USA
Distance from Wildwood: SSØ 36mi, 58km
Opdateret: Sep 20, 2019 2:52am
Overskyet
Overskyet
 Vind retning ØSØ
Vind: ØSØ 8 mph , 13 km/h
Temperatur: 79°F , 26°C
Dugpunkt: 72°F , 22°C
Fugtighed: 79%
Barometer: 29.91 inHg , 1012.9 hPa
Clouds: Overskyet
Visibility: 10 miles , 16 km
Cloud details: Partly Cloudy 1300 ft
Mostly Cloudy 2100 ft
Overskyet 2700 ft
2019/09/20 07:52 KNFW 200752Z AUTO 12007KT 10SM SCT013 BKN021 OVC027 26/22 A2991 RMK AO2 SLP112 T02560217 VISNO N $
KGLE - Gainesville, Texas, USA
Distance from Wildwood: NØ 38mi, 61km
Opdateret: Sep 20, 2019 2:55am
Overskyet
Overskyet
 Vind retning calm
Vind: Vindstille
Temperatur: 73°F , 23°C
Dugpunkt: 70°F , 21°C
Fugtighed: 89%
Barometer: 29.93 inHg , 1013.5 hPa
Clouds: Overskyet
Visibility: 10 miles , 16 km
Cloud details: Overskyet 1400 ft
2019/09/20 07:55 KGLE 200755Z AUTO 00000KT 10SM OVC014 23/21 A2993 RMK AO2 T02280206
 
KMWL - Mineral Wells, Texas, USA
Distance from Wildwood: SV 41mi, 65km
Opdateret: Sep 20, 2019 2:53am
Partly Cloudy
Partly Cloudy
 Vind retning Ø
Vind: Ø 5 mph , 7 km/h
Temperatur: 72°F , 22°C
Dugpunkt: 70°F , 21°C
Fugtighed: 94%
Barometer: 29.89 inHg , 1012.2 hPa
Clouds: Partly Cloudy
Visibility: 10 miles , 16 km
Cloud details: Few Clouds 4900 ft
Partly Cloudy 7000 ft
2019/09/20 07:53 KMWL 200753Z AUTO 09004KT 10SM FEW049 SCT070 22/21 A2989 RMK AO2 SLP108 T02170206
KDFW - Dallas/Ft Worth, Texas, USA
Distance from Wildwood: ØSØ 45mi, 73km
Opdateret: Sep 20, 2019 2:53am
Mostly Cloudy
Mostly Cloudy
 Vind retning S
Vind: S 8 mph , 13 km/h
Temperatur: 75°F , 24°C
Dugpunkt: 72°F , 22°C
Fugtighed: 89%
Barometer: 29.90 inHg , 1012.5 hPa
Clouds: Mostly Cloudy
Visibility: 10 miles , 16 km
Cloud details: Partly Cloudy 1300 ft
Mostly Cloudy 2100 ft
2019/09/20 07:53 KDFW 200753Z 17007KT 10SM SCT013 BKN021 24/22 A2990 RMK AO2 SLP115 T02440217